createdAt,value
2023-02-27T00:02:02.488Z,9.40
2023-02-27T00:04:28.975Z,13.00
2023-02-27T00:06:55.985Z,22.70
2023-02-27T00:11:49.251Z,7.90
2023-02-27T00:14:16.100Z,11.20
2023-02-27T00:16:42.582Z,11.10
2023-02-27T00:19:09.154Z,9.50
2023-02-27T00:21:36.876Z,6.40
2023-02-27T00:24:04.299Z,6.50
2023-02-27T00:26:30.975Z,8.60
2023-02-27T00:28:57.882Z,6.10
2023-02-27T00:31:24.442Z,6.60
2023-02-27T00:33:51.304Z,15.00
2023-02-27T00:36:21.165Z,11.40
2023-02-27T00:38:47.594Z,11.70
2023-02-27T00:41:14.444Z,10.70
2023-02-27T00:43:41.308Z,10.90
2023-02-27T00:46:08.740Z,12.50
2023-02-27T00:48:35.768Z,9.00
2023-02-27T00:51:02.561Z,8.20
2023-02-27T00:53:29.133Z,8.30
2023-02-27T00:55:55.740Z,8.30
2023-02-27T00:58:22.395Z,7.00
2023-02-27T01:00:49.130Z,18.60
2023-02-27T01:03:15.728Z,13.10
2023-02-27T01:05:43.475Z,11.20
2023-02-27T01:08:10.187Z,10.60
2023-02-27T01:10:36.894Z,15.70
2023-02-27T01:13:03.470Z,7.80
2023-02-27T01:15:30.211Z,20.10
2023-02-27T01:17:56.804Z,14.90
2023-02-27T01:20:23.262Z,8.30
2023-02-27T01:22:49.849Z,16.60
2023-02-27T01:25:16.615Z,12.80
2023-02-27T01:27:43.458Z,6.90
2023-02-27T01:30:14.047Z,7.50
2023-02-27T01:32:40.952Z,7.70
2023-02-27T01:35:08.441Z,7.80
2023-02-27T01:37:34.925Z,5.90
2023-02-27T01:40:01.555Z,7.40
2023-02-27T01:42:28.918Z,6.00
2023-02-27T01:45:26.842Z,6.50
2023-02-27T01:47:58.926Z,6.90
2023-02-27T01:50:25.447Z,6.30
2023-02-27T01:52:58.539Z,5.70
2023-02-27T01:55:28.020Z,5.40
2023-02-27T01:57:55.076Z,5.70
2023-02-27T02:03:00.943Z,4.90
2023-02-27T02:05:28.404Z,4.70
2023-02-27T02:10:22.874Z,4.40
2023-02-27T02:12:49.706Z,4.60
2023-02-27T02:17:50.602Z,5.00
2023-02-27T02:20:48.057Z,4.20
2023-02-27T02:23:30.069Z,3.90
2023-02-27T02:26:24.542Z,5.60
2023-02-27T02:29:09.605Z,4.40
2023-02-27T02:32:27.850Z,4.30
2023-02-27T02:35:29.134Z,4.70
2023-02-27T02:38:17.376Z,3.90
2023-02-27T02:41:18.146Z,4.30
2023-02-27T02:44:04.639Z,4.10
2023-02-27T02:46:43.196Z,4.90
2023-02-27T02:49:48.345Z,4.50
2023-02-27T02:52:20.860Z,4.40
2023-02-27T02:55:08.957Z,3.60
2023-02-27T02:57:43.605Z,3.90
2023-02-27T03:00:16.924Z,3.50
2023-02-27T03:03:04.966Z,4.40
2023-02-27T03:05:37.334Z,3.90
2023-02-27T03:08:10.710Z,4.10
2023-02-27T03:10:42.847Z,4.20
2023-02-27T03:13:13.941Z,3.20
2023-02-27T03:15:44.995Z,4.90
2023-02-27T03:18:24.004Z,4.00
2023-02-27T03:21:00.340Z,3.80
2023-02-27T03:23:34.777Z,3.90
2023-02-27T03:26:02.511Z,5.20
2023-02-27T03:28:32.103Z,3.70
2023-02-27T03:31:05.662Z,4.00
2023-02-27T03:33:42.499Z,4.10
2023-02-27T03:36:09.847Z,4.00
2023-02-27T03:38:41.188Z,4.10
2023-02-27T03:41:10.850Z,3.70
2023-02-27T03:43:55.143Z,3.90
2023-02-27T03:46:23.891Z,3.80
2023-02-27T03:48:50.496Z,4.00
2023-02-27T03:51:19.281Z,3.80
2023-02-27T03:53:53.681Z,3.00
2023-02-27T03:56:24.722Z,3.60
2023-02-27T03:58:52.077Z,3.80
2023-02-27T04:03:56.233Z,3.60
2023-02-27T04:06:43.785Z,3.20
2023-02-27T04:09:34.894Z,4.40
2023-02-27T04:14:43.355Z,5.20
2023-02-27T04:17:22.371Z,4.20
2023-02-27T04:22:18.046Z,3.50
2023-02-27T04:25:11.954Z,3.90
2023-02-27T04:28:03.116Z,4.10
2023-02-27T04:30:37.780Z,4.00
2023-02-27T04:33:09.140Z,3.70
2023-02-27T04:35:43.518Z,4.50
2023-02-27T04:38:27.622Z,4.40
2023-02-27T04:41:01.268Z,4.10
2023-02-27T04:43:28.895Z,3.80
2023-02-27T04:45:56.902Z,4.90
2023-02-27T04:48:26.055Z,4.40
2023-02-27T04:51:13.716Z,3.70
2023-02-27T04:53:48.622Z,3.50
2023-02-27T04:56:21.063Z,4.10
2023-02-27T04:59:03.679Z,3.50
2023-02-27T05:02:29.015Z,3.70
2023-02-27T05:04:58.977Z,4.30
2023-02-27T05:07:32.162Z,4.00
2023-02-27T05:12:32.019Z,3.10
2023-02-27T05:15:06.733Z,3.50
2023-02-27T05:17:41.103Z,3.50
2023-02-27T05:20:08.534Z,4.60
2023-02-27T05:22:38.202Z,5.80
2023-02-27T05:25:10.522Z,4.70
2023-02-27T05:27:49.022Z,3.70
2023-02-27T05:30:21.327Z,4.00
2023-02-27T05:32:55.765Z,4.50
2023-02-27T05:35:29.692Z,4.20
2023-02-27T05:38:12.232Z,4.10
2023-02-27T05:40:47.803Z,4.20
2023-02-27T05:43:20.300Z,5.20
2023-02-27T05:45:50.463Z,4.70
2023-02-27T05:48:42.146Z,5.40
2023-02-27T05:51:11.027Z,5.70
2023-02-27T05:53:41.120Z,4.40
2023-02-27T05:56:08.176Z,4.90
2023-02-27T06:01:06.806Z,4.80
2023-02-27T06:03:34.962Z,4.60
2023-02-27T06:06:04.444Z,4.50
2023-02-27T06:08:31.242Z,4.60
2023-02-27T06:10:57.700Z,4.00
2023-02-27T06:13:25.545Z,3.60
2023-02-27T06:15:52.188Z,4.70
2023-02-27T06:18:19.409Z,4.50
2023-02-27T06:20:46.796Z,5.60
2023-02-27T06:23:13.340Z,5.40
2023-02-27T06:25:41.679Z,4.70
2023-02-27T06:28:08.617Z,4.50
2023-02-27T06:30:35.752Z,4.50
2023-02-27T06:33:02.698Z,4.20
2023-02-27T06:35:29.477Z,4.80
2023-02-27T06:37:56.297Z,4.20
2023-02-27T06:40:23.326Z,3.80
2023-02-27T06:42:49.776Z,3.60
2023-02-27T06:45:16.888Z,4.40
2023-02-27T06:50:11.892Z,4.80
2023-02-27T06:52:39.298Z,5.10
2023-02-27T06:55:07.363Z,5.50
2023-02-27T06:57:34.010Z,5.00
2023-02-27T07:00:00.703Z,5.20
2023-02-27T07:02:27.170Z,4.70
2023-02-27T07:04:53.835Z,4.70
2023-02-27T07:07:33.375Z,4.70
2023-02-27T07:10:05.888Z,4.10
2023-02-27T07:12:32.273Z,3.50
2023-02-27T07:14:59.064Z,4.00
2023-02-27T07:17:25.632Z,5.00
2023-02-27T07:19:51.968Z,5.00
2023-02-27T07:22:18.388Z,5.10
2023-02-27T07:24:45.054Z,4.10
2023-02-27T07:27:11.652Z,3.70
2023-02-27T07:29:37.993Z,3.90
2023-02-27T07:32:05.060Z,5.30
2023-02-27T07:34:31.841Z,4.00
2023-02-27T07:36:58.326Z,3.70
2023-02-27T07:39:24.905Z,4.90
2023-02-27T07:41:51.540Z,4.60
2023-02-27T07:44:18.358Z,5.50
2023-02-27T07:46:46.542Z,4.80
2023-02-27T07:49:13.324Z,4.90
2023-02-27T07:51:39.947Z,4.00
2023-02-27T07:54:06.500Z,4.10
2023-02-27T07:56:33.188Z,3.70
2023-02-27T07:59:00.014Z,4.10
2023-02-27T08:01:26.597Z,4.70
2023-02-27T08:03:53.098Z,4.70
2023-02-27T08:06:19.632Z,4.50
2023-02-27T08:08:46.304Z,4.20
2023-02-27T08:11:12.882Z,4.50
2023-02-27T08:13:59.446Z,5.00
2023-02-27T08:16:26.741Z,3.70
2023-02-27T08:18:53.738Z,4.60
2023-02-27T08:21:20.189Z,4.50
2023-02-27T08:23:46.493Z,4.30
2023-02-27T08:26:13.663Z,3.70
2023-02-27T08:28:40.597Z,4.00
2023-02-27T08:33:34.257Z,5.30
2023-02-27T08:36:00.729Z,4.00
2023-02-27T08:38:27.833Z,4.20
2023-02-27T08:40:54.330Z,3.80
2023-02-27T08:43:21.593Z,3.70
2023-02-27T08:45:49.006Z,4.20
2023-02-27T08:48:17.109Z,3.30
2023-02-27T08:50:44.532Z,3.10
2023-02-27T08:53:11.650Z,4.00
2023-02-27T08:55:38.145Z,3.40
2023-02-27T08:58:04.512Z,3.50
2023-02-27T09:00:31.872Z,3.60
2023-02-27T09:02:59.551Z,2.90
2023-02-27T09:05:27.051Z,3.00
2023-02-27T09:07:53.598Z,3.60
2023-02-27T09:10:20.206Z,3.10
2023-02-27T09:12:48.522Z,2.50
2023-02-27T09:15:15.205Z,3.10
2023-02-27T09:17:43.084Z,2.90
2023-02-27T09:20:12.017Z,2.90
2023-02-27T09:22:38.978Z,3.00
2023-02-27T09:27:32.322Z,2.90
2023-02-27T09:29:59.159Z,3.20
2023-02-27T09:32:26.798Z,3.10
2023-02-27T09:34:53.332Z,3.90
2023-02-27T09:37:19.853Z,3.90
2023-02-27T09:39:46.636Z,4.30
2023-02-27T09:42:23.765Z,3.80
2023-02-27T09:44:53.844Z,4.40
2023-02-27T09:47:28.166Z,3.20
2023-02-27T09:50:30.093Z,3.10
2023-02-27T09:52:57.136Z,3.60
2023-02-27T09:55:25.478Z,3.70
2023-02-27T09:58:01.293Z,3.60
2023-02-27T10:00:38.709Z,3.10
2023-02-27T10:03:29.613Z,3.40
2023-02-27T10:06:20.608Z,3.20
2023-02-27T10:08:59.652Z,3.60
2023-02-27T10:11:37.067Z,3.10
2023-02-27T10:14:12.792Z,3.40
2023-02-27T10:16:39.602Z,3.70
2023-02-27T10:19:13.968Z,3.70
2023-02-27T10:21:44.057Z,3.70
2023-02-27T10:24:24.035Z,2.90
2023-02-27T10:26:54.624Z,2.60
2023-02-27T10:29:31.434Z,2.70
2023-02-27T10:32:24.985Z,2.80
2023-02-27T10:34:55.113Z,2.90
2023-02-27T10:37:24.018Z,3.30
2023-02-27T10:39:59.644Z,3.70
2023-02-27T10:42:29.598Z,2.50
2023-02-27T10:44:56.051Z,3.10
2023-02-27T10:47:24.389Z,3.10
2023-02-27T10:49:51.988Z,3.00
2023-02-27T10:52:20.806Z,2.10
2023-02-27T10:54:48.044Z,1.90
2023-02-27T10:57:26.865Z,2.00
2023-02-27T10:59:58.059Z,2.70
2023-02-27T11:02:31.646Z,2.00
2023-02-27T11:04:59.324Z,2.00
2023-02-27T11:07:34.367Z,2.20
2023-02-27T11:10:05.079Z,2.40
2023-02-27T11:12:33.667Z,2.50
2023-02-27T11:15:02.806Z,2.80
2023-02-27T11:17:32.210Z,2.70
2023-02-27T11:20:00.452Z,2.60
2023-02-27T11:22:29.188Z,2.50
2023-02-27T11:25:14.883Z,2.80
2023-02-27T11:27:41.297Z,2.30
2023-02-27T11:30:27.823Z,2.40
2023-02-27T11:32:56.592Z,2.50
2023-02-27T11:35:33.949Z,2.60
2023-02-27T11:38:02.860Z,1.90
2023-02-27T11:40:36.794Z,1.60
2023-02-27T11:43:15.606Z,1.70
2023-02-27T11:46:05.117Z,1.80
2023-02-27T11:48:51.257Z,2.10
2023-02-27T11:51:17.634Z,3.20
2023-02-27T11:54:02.215Z,2.80
2023-02-27T11:56:44.602Z,2.40
2023-02-27T11:59:11.641Z,2.40
2023-02-27T12:04:38.290Z,2.30
2023-02-27T12:07:25.408Z,1.60
2023-02-27T12:10:15.595Z,1.90
2023-02-27T12:13:03.116Z,2.20
2023-02-27T12:15:52.281Z,2.10
2023-02-27T12:18:32.031Z,2.90
2023-02-27T12:21:13.970Z,2.80
2023-02-27T12:23:45.018Z,3.60
2023-02-27T12:26:44.956Z,3.20
2023-02-27T12:29:24.896Z,3.70
2023-02-27T12:31:55.119Z,3.20
2023-02-27T12:34:30.898Z,4.90
2023-02-27T12:37:04.265Z,4.80
2023-02-27T12:39:34.529Z,4.90
2023-02-27T12:42:13.995Z,5.00
2023-02-27T12:45:04.245Z,5.40
2023-02-27T12:47:39.695Z,4.50
2023-02-27T12:50:19.769Z,4.20
2023-02-27T12:53:03.008Z,4.20
2023-02-27T12:55:32.153Z,4.10
2023-02-27T12:58:24.660Z,4.40
2023-02-27T13:01:32.876Z,4.70
2023-02-27T13:04:03.708Z,4.20
2023-02-27T13:06:53.142Z,4.70
2023-02-27T13:09:26.919Z,4.20
2023-02-27T13:12:31.495Z,4.00
2023-02-27T13:15:03.797Z,5.00
2023-02-27T13:17:48.184Z,4.60
2023-02-27T13:20:20.605Z,4.00
2023-02-27T13:23:14.481Z,3.00
2023-02-27T13:25:44.866Z,3.80
2023-02-27T13:28:16.503Z,4.40
2023-02-27T13:31:07.361Z,4.60
2023-02-27T13:33:36.593Z,5.50
2023-02-27T13:36:06.001Z,4.20
2023-02-27T13:38:44.897Z,4.50
2023-02-27T13:44:21.366Z,4.40
2023-02-27T13:46:47.975Z,4.10
2023-02-27T13:49:29.223Z,5.70
2023-02-27T13:51:59.137Z,4.70
2023-02-27T13:54:32.051Z,5.80
2023-02-27T13:59:28.369Z,5.40
2023-02-27T14:02:10.519Z,4.90
2023-02-27T14:04:45.305Z,4.60
2023-02-27T14:07:18.158Z,5.40
2023-02-27T14:12:45.527Z,5.30
2023-02-27T14:15:21.807Z,5.00
2023-02-27T14:18:12.370Z,4.90
2023-02-27T14:20:42.548Z,5.40
2023-02-27T14:23:15.208Z,5.60
2023-02-27T14:25:53.239Z,5.10
2023-02-27T14:28:29.920Z,5.90
2023-02-27T14:31:08.496Z,5.00
2023-02-27T14:33:50.132Z,5.10
2023-02-27T14:36:20.202Z,4.80
2023-02-27T14:38:47.704Z,5.50
2023-02-27T14:41:55.620Z,4.70
2023-02-27T14:44:27.359Z,5.40
2023-02-27T14:46:57.476Z,5.00
2023-02-27T14:49:34.827Z,5.10
2023-02-27T14:52:11.931Z,4.90
2023-02-27T14:54:38.453Z,5.20
2023-02-27T14:57:06.293Z,5.10
2023-02-27T14:59:41.842Z,4.70
2023-02-27T15:02:17.624Z,3.60
2023-02-27T15:04:45.276Z,3.30
2023-02-27T15:07:24.116Z,3.50
2023-02-27T15:09:54.161Z,3.90
2023-02-27T15:12:22.122Z,3.80
2023-02-27T15:14:55.062Z,3.90
2023-02-27T15:17:24.022Z,4.70
2023-02-27T15:19:56.651Z,4.90
2023-02-27T15:22:38.560Z,5.50
2023-02-27T15:25:07.143Z,6.90
2023-02-27T15:27:36.584Z,6.80
2023-02-27T15:30:03.816Z,7.20
2023-02-27T15:32:36.458Z,7.10
2023-02-27T15:35:35.854Z,7.10
2023-02-27T15:38:03.464Z,6.00
2023-02-27T15:40:32.496Z,6.30
2023-02-27T15:42:59.996Z,6.80
2023-02-27T15:45:32.779Z,6.00
2023-02-27T15:47:59.700Z,5.80
2023-02-27T15:50:41.864Z,6.50
2023-02-27T15:53:24.969Z,6.90
2023-02-27T15:55:57.016Z,8.10
2023-02-27T15:58:29.249Z,8.00
2023-02-27T16:01:05.086Z,6.90
2023-02-27T16:03:42.098Z,5.40
2023-02-27T16:06:11.637Z,5.10
2023-02-27T16:08:44.802Z,5.50
2023-02-27T16:11:37.926Z,4.50
2023-02-27T16:14:07.976Z,4.90
2023-02-27T16:16:36.744Z,5.30
2023-02-27T16:19:26.419Z,5.60
2023-02-27T16:22:14.267Z,6.50
2023-02-27T16:24:42.250Z,6.20
2023-02-27T16:27:27.078Z,10.30
2023-02-27T16:29:55.800Z,9.90
2023-02-27T16:32:25.292Z,8.30
2023-02-27T16:35:00.001Z,7.70
2023-02-27T16:37:30.585Z,12.80
2023-02-27T16:39:57.028Z,12.00
2023-02-27T16:42:23.729Z,10.40
2023-02-27T16:44:50.308Z,9.60
2023-02-27T16:47:16.731Z,9.50
2023-02-27T16:49:45.051Z,8.80
2023-02-27T16:52:11.742Z,7.50
2023-02-27T16:54:38.195Z,8.00
2023-02-27T16:57:04.494Z,7.60
2023-02-27T16:59:36.731Z,7.20
2023-02-27T17:02:06.599Z,7.90
2023-02-27T17:04:33.099Z,8.20
2023-02-27T17:07:00.802Z,8.10
2023-02-27T17:09:27.881Z,8.10
2023-02-27T17:14:21.895Z,7.00
2023-02-27T17:16:48.918Z,5.80
2023-02-27T17:19:15.448Z,7.40
2023-02-27T17:21:41.866Z,5.70
2023-02-27T17:24:08.850Z,6.40
2023-02-27T17:29:02.721Z,6.50
2023-02-27T17:31:29.355Z,7.20
2023-02-27T17:33:56.124Z,15.20
2023-02-27T17:36:23.363Z,17.10
2023-02-27T17:38:57.278Z,13.80
2023-02-27T17:41:24.228Z,13.30
2023-02-27T17:46:18.517Z,10.10
2023-02-27T17:48:45.207Z,10.30
2023-02-27T17:51:13.892Z,11.00
2023-02-27T17:53:41.211Z,10.30
2023-02-27T17:56:08.880Z,9.80
2023-02-27T17:58:35.519Z,10.20
2023-02-27T18:01:05.531Z,9.90
2023-02-27T18:03:32.496Z,10.50
2023-02-27T18:08:25.448Z,9.70
2023-02-27T18:10:55.001Z,10.40
2023-02-27T18:13:21.684Z,10.60
2023-02-27T18:15:49.703Z,10.30
2023-02-27T18:18:16.343Z,11.20
2023-02-27T18:20:45.740Z,10.20
2023-02-27T18:23:13.354Z,9.40
2023-02-27T18:25:40.152Z,10.50
2023-02-27T18:28:07.321Z,9.70
2023-02-27T18:30:36.871Z,11.10
2023-02-27T18:33:03.631Z,11.10
2023-02-27T18:35:31.290Z,10.80
2023-02-27T18:37:57.954Z,10.80
2023-02-27T18:40:25.865Z,10.80
2023-02-27T18:42:52.722Z,13.90
2023-02-27T18:45:19.599Z,11.50
2023-02-27T18:47:46.475Z,14.60
2023-02-27T18:50:13.566Z,11.70
2023-02-27T18:52:40.333Z,13.80
2023-02-27T18:57:34.260Z,23.70
2023-02-27T19:02:27.162Z,28.10
2023-02-27T19:04:53.941Z,29.10
2023-02-27T19:07:23.332Z,29.10
2023-02-27T19:10:00.267Z,31.20
2023-02-27T19:12:27.019Z,31.00
2023-02-27T19:14:54.137Z,27.60
2023-02-27T19:17:20.741Z,23.60
2023-02-27T19:19:47.927Z,25.30
2023-02-27T19:22:14.256Z,25.30
2023-02-27T19:24:40.761Z,23.80
2023-02-27T19:27:07.786Z,23.30
2023-02-27T19:32:01.406Z,22.90
2023-02-27T19:34:28.508Z,20.70
2023-02-27T19:36:55.000Z,21.20
2023-02-27T19:39:24.583Z,22.50
2023-02-27T19:41:51.978Z,24.20
2023-02-27T19:44:18.641Z,21.00
2023-02-27T19:46:48.406Z,19.60
2023-02-27T19:49:15.089Z,19.10
2023-02-27T19:51:41.781Z,16.90
2023-02-27T19:56:38.576Z,18.20
2023-02-27T19:59:05.220Z,18.10
2023-02-27T20:01:33.575Z,19.20
2023-02-27T20:04:01.237Z,17.70
2023-02-27T20:06:30.227Z,19.00
2023-02-27T20:08:58.306Z,18.30
2023-02-27T20:11:29.601Z,15.90
2023-02-27T20:13:56.350Z,18.90
2023-02-27T20:16:25.629Z,19.00
2023-02-27T20:18:52.858Z,19.70
2023-02-27T20:21:21.656Z,19.10
2023-02-27T20:23:51.092Z,18.80
2023-02-27T20:26:21.057Z,18.60
2023-02-27T20:28:49.366Z,20.50
2023-02-27T20:31:18.158Z,21.30
2023-02-27T20:33:45.793Z,22.00
2023-02-27T20:36:12.517Z,21.20
2023-02-27T20:38:39.526Z,20.90
2023-02-27T20:41:10.928Z,20.40
2023-02-27T20:43:37.930Z,20.30
2023-02-27T20:46:07.274Z,20.10
2023-02-27T20:48:34.370Z,19.90
2023-02-27T20:51:15.688Z,22.00
2023-02-27T20:53:44.580Z,20.90
2023-02-27T20:56:11.012Z,20.10
2023-02-27T20:58:38.577Z,21.20
2023-02-27T21:01:10.264Z,20.00
2023-02-27T21:03:39.209Z,19.40
2023-02-27T21:06:07.837Z,19.60
2023-02-27T21:08:39.174Z,21.10
2023-02-27T21:11:10.373Z,20.80
2023-02-27T21:13:37.870Z,20.00
2023-02-27T21:16:06.777Z,19.50
2023-02-27T21:18:33.417Z,22.60
2023-02-27T21:21:09.097Z,19.90
2023-02-27T21:23:40.434Z,22.10
2023-02-27T21:26:08.961Z,21.40
2023-02-27T21:28:41.510Z,20.40
2023-02-27T21:31:08.033Z,20.20
2023-02-27T21:33:34.606Z,19.80
2023-02-27T21:36:01.182Z,19.60
2023-02-27T21:38:28.943Z,21.00
2023-02-27T21:40:55.328Z,20.00
2023-02-27T21:43:22.410Z,20.70
2023-02-27T21:45:51.177Z,20.50
2023-02-27T21:48:17.687Z,20.00
2023-02-27T21:50:44.230Z,19.90
2023-02-27T21:53:10.637Z,19.60
2023-02-27T21:55:37.745Z,18.10
2023-02-27T22:00:32.996Z,17.40
2023-02-27T22:02:59.575Z,17.60
2023-02-27T22:05:26.558Z,17.30
2023-02-27T22:07:53.038Z,20.30
2023-02-27T22:10:19.561Z,19.10
2023-02-27T22:12:45.900Z,19.90
2023-02-27T22:15:12.363Z,18.40
2023-02-27T22:17:38.942Z,17.30
2023-02-27T22:20:06.655Z,16.60
2023-02-27T22:22:33.048Z,17.70
2023-02-27T22:24:59.566Z,15.00
2023-02-27T22:27:26.164Z,16.70
2023-02-27T22:29:52.756Z,15.20
2023-02-27T22:32:19.334Z,14.90
2023-02-27T22:34:45.791Z,17.40
2023-02-27T22:37:15.445Z,18.10
2023-02-27T22:39:42.652Z,17.70
2023-02-27T22:42:09.153Z,18.20
2023-02-27T22:44:36.348Z,19.90
2023-02-27T22:47:04.201Z,23.30
2023-02-27T22:49:30.580Z,23.10
2023-02-27T22:51:57.226Z,21.80
2023-02-27T22:54:23.854Z,23.50
2023-02-27T22:56:52.084Z,21.60
2023-02-27T22:59:19.190Z,21.50
2023-02-27T23:01:47.380Z,19.50
2023-02-27T23:04:16.553Z,22.00
2023-02-27T23:06:43.268Z,17.90
2023-02-27T23:09:15.830Z,17.50
2023-02-27T23:11:42.852Z,17.50
2023-02-27T23:16:36.091Z,16.70
2023-02-27T23:19:03.444Z,18.00
2023-02-27T23:21:36.452Z,16.50
2023-02-27T23:24:08.364Z,18.30
2023-02-27T23:26:37.016Z,18.00
2023-02-27T23:29:04.234Z,18.80
2023-02-27T23:31:33.441Z,18.80
2023-02-27T23:34:01.536Z,20.10
2023-02-27T23:36:27.982Z,21.10
2023-02-27T23:38:54.407Z,18.80
2023-02-27T23:41:20.927Z,18.80
2023-02-27T23:43:51.496Z,18.50
2023-02-27T23:46:18.667Z,19.60
2023-02-27T23:48:45.284Z,17.80
2023-02-27T23:51:11.650Z,20.40
2023-02-27T23:53:39.798Z,23.10
2023-02-27T23:56:16.801Z,23.40
2023-02-27T23:58:44.581Z,22.10
